Time,TemperatureF,DewpointF,PressureIn,WindDirection,WindDirectionDegrees,WindSpeedMPH,WindSpeedGustMPH,Humidity,HourlyPrecipIn,Conditions,Clouds,dailyrainin,SoftwareType,DateUTC
2013-06-12 00:00:00,80.7,77.5,29.99,South,172,0.0,0.0,90,0.00,,---,0.00,VWS V14.01,2013-06-12 04:00:00,
2013-06-12 00:01:00,80.7,77.5,29.99,South,172,0.0,0.0,90,0.00,,---,0.00,VWS V14.01,2013-06-12 04:01:00,
2013-06-12 00:02:00,80.7,77.5,29.99,South,172,0.0,0.0,90,0.00,,---,0.00,VWS V14.01,2013-06-12 04:02:00,
2013-06-12 00:07:00,80.9,78.0,29.99,NNE,30,0.0,0.0,91,0.00,,---,0.00,VWS V14.01,2013-06-12 04:07:00,
2013-06-12 00:12:00,81.0,78.5,29.99,NE,53,0.0,0.0,92,0.00,,---,0.00,VWS V14.01,2013-06-12 04:12:00,
2013-06-12 00:17:00,80.9,78.4,29.99,ENE,70,0.0,0.0,92,0.00,,---,0.00,VWS V14.01,2013-06-12 04:17:00,
2013-06-12 00:22:00,80.7,78.2,29.99,SE,131,0.0,0.0,92,0.00,,---,0.00,VWS V14.01,2013-06-12 04:22:00,
2013-06-12 00:27:00,80.5,78.3,29.99,SE,131,0.0,0.0,93,0.00,,---,0.00,VWS V14.01,2013-06-12 04:27:00,
2013-06-12 00:32:00,80.5,78.3,29.99,NNE,32,0.0,0.0,93,0.00,,---,0.00,VWS V14.01,2013-06-12 04:32:00,
2013-06-12 00:37:00,80.5,78.3,29.99,North,352,0.0,0.0,93,0.00,,---,0.00,VWS V14.01,2013-06-12 04:37:00,
2013-06-12 00:42:00,80.4,78.5,29.99,North,360,0.0,0.0,94,0.00,,---,0.00,VWS V14.01,2013-06-12 04:42:00,
2013-06-12 00:47:00,80.2,78.0,29.98,SW,221,0.0,0.0,93,0.00,,---,0.00,VWS V14.01,2013-06-12 04:47:00,
2013-06-12 00:52:00,79.9,77.4,29.98,SSW,193,0.0,0.0,92,0.00,,---,0.00,VWS V14.01,2013-06-12 04:52:00,
2013-06-12 00:57:00,79.9,77.4,29.99,West,263,0.0,0.0,92,0.00,,---,0.00,VWS V14.01,2013-06-12 04:57:00,
2013-06-12 01:02:00,80.0,77.5,29.99,WNW,303,0.0,0.0,92,0.00,,---,0.00,VWS V14.01,2013-06-12 05:02:00,
2013-06-12 01:07:00,79.9,77.0,29.98,West,277,0.0,0.0,91,0.00,,---,0.00,VWS V14.01,2013-06-12 05:07:00,
2013-06-12 01:12:00,79.9,77.4,29.98,SW,225,0.0,0.0,92,0.00,,---,0.00,VWS V14.01,2013-06-12 05:12:00,
2013-06-12 01:17:00,79.7,76.5,29.98,NW,307,1.0,1.0,90,0.00,,---,0.00,VWS V14.01,2013-06-12 05:17:00,
2013-06-12 01:22:00,79.9,76.0,29.98,WNW,284,2.0,3.0,88,0.00,,---,0.00,VWS V14.01,2013-06-12 05:22:00,
2013-06-12 01:27:00,80.1,76.2,29.98,West,271,0.0,0.0,88,0.00,,---,0.00,VWS V14.01,2013-06-12 05:27:00,
2013-06-12 01:32:00,80.0,76.1,29.97,West,271,0.0,0.0,88,0.00,,---,0.00,VWS V14.01,2013-06-12 05:32:00,
2013-06-12 01:37:00,79.8,75.2,29.97,SSW,212,0.0,0.0,86,0.00,,---,0.00,VWS V14.01,2013-06-12 05:37:00,
2013-06-12 01:42:00,80.0,75.4,29.97,South,185,0.0,0.0,86,0.00,,---,0.00,VWS V14.01,2013-06-12 05:42:00,
2013-06-12 01:47:00,80.2,76.0,29.97,SSW,207,0.0,1.0,87,0.00,,---,0.00,VWS V14.01,2013-06-12 05:47:00,
2013-06-12 01:52:00,80.1,75.5,29.97,SSW,212,0.0,0.0,86,0.00,,---,0.00,VWS V14.01,2013-06-12 05:52:00,
2013-06-12 01:57:00,80.0,75.4,29.97,WSW,250,0.0,2.0,86,0.00,,---,0.00,VWS V14.01,2013-06-12 05:57:00,
2013-06-12 02:02:00,80.0,75.4,29.97,WSW,240,0.0,1.0,86,0.00,,---,0.00,VWS V14.01,2013-06-12 06:02:00,
2013-06-12 02:07:00,79.8,75.6,29.97,WSW,255,0.0,0.0,87,0.00,,---,0.00,VWS V14.01,2013-06-12 06:07:00,
2013-06-12 02:12:00,79.6,75.4,29.97,SW,219,2.0,2.0,87,0.00,,---,0.00,VWS V14.01,2013-06-12 06:12:00,
2013-06-12 02:17:00,79.6,75.4,29.97,SW,214,0.0,1.0,87,0.00,,---,0.00,VWS V14.01,2013-06-12 06:17:00,
2013-06-12 02:22:00,79.6,75.1,29.97,SW,214,1.0,3.0,86,0.00,,---,0.00,VWS V14.01,2013-06-12 06:22:00,
2013-06-12 02:27:00,79.7,74.8,29.97,WSW,240,1.0,4.0,85,0.00,,---,0.00,VWS V14.01,2013-06-12 06:27:00,
2013-06-12 02:32:00,79.7,74.8,29.97,WSW,249,0.0,3.0,85,0.00,,---,0.00,VWS V14.01,2013-06-12 06:32:00,
2013-06-12 02:37:00,79.6,74.7,29.97,West,276,0.0,1.0,85,0.00,,---,0.00,VWS V14.01,2013-06-12 06:37:00,
2013-06-12 02:42:00,79.6,74.7,29.97,WSW,243,0.0,3.0,85,0.00,,---,0.00,VWS V14.01,2013-06-12 06:42:00,
2013-06-12 02:47:00,79.6,74.7,29.97,West,269,1.0,2.0,85,0.00,,---,0.00,VWS V14.01,2013-06-12 06:47:00,
2013-06-12 02:52:00,79.4,74.5,29.97,WSW,247,0.0,0.0,85,0.00,,---,0.00,VWS V14.01,2013-06-12 06:52:00,
2013-06-12 02:57:00,79.3,74.8,29.96,WSW,246,0.0,0.0,86,0.00,,---,0.00,VWS V14.01,2013-06-12 06:57:00,
2013-06-12 03:02:00,79.1,74.6,29.96,SW,221,0.0,0.0,86,0.00,,---,0.00,VWS V14.01,2013-06-12 07:02:00,
2013-06-12 03:07:00,79.0,74.5,29.96,WSW,249,0.0,1.0,86,0.00,,---,0.00,VWS V14.01,2013-06-12 07:07:00,
2013-06-12 03:12:00,78.9,74.4,29.96,SW,225,0.0,0.0,86,0.00,,---,0.00,VWS V14.01,2013-06-12 07:12:00,
2013-06-12 03:17:00,78.8,74.3,29.96,SSW,210,0.0,1.0,86,0.00,,---,0.00,VWS V14.01,2013-06-12 07:17:00,
2013-06-12 03:22:00,78.7,74.2,29.97,WSW,245,0.0,1.0,86,0.00,,---,0.00,VWS V14.01,2013-06-12 07:22:00,
2013-06-12 03:27:00,78.7,74.2,29.96,SW,233,0.0,1.0,86,0.00,,---,0.00,VWS V14.01,2013-06-12 07:27:00,
2013-06-12 03:32:00,78.7,74.2,29.97,SSW,203,0.0,0.0,86,0.00,,---,0.00,VWS V14.01,2013-06-12 07:32:00,
2013-06-12 03:37:00,78.7,74.5,29.97,SSW,201,0.0,0.0,87,0.00,,---,0.00,VWS V14.01,2013-06-12 07:37:00,
2013-06-12 03:42:00,78.6,74.4,29.97,SSW,198,0.0,0.0,87,0.00,,---,0.00,VWS V14.01,2013-06-12 07:42:00,
2013-06-12 03:47:00,78.6,74.4,29.96,WSW,249,0.0,0.0,87,0.00,,---,0.00,VWS V14.01,2013-06-12 07:47:00,
2013-06-12 03:52:00,78.5,74.3,29.96,WSW,242,0.0,2.0,87,0.00,,---,0.00,VWS V14.01,2013-06-12 07:52:00,
2013-06-12 03:57:00,78.4,74.2,29.96,WSW,255,0.0,2.0,87,0.00,,---,0.00,VWS V14.01,2013-06-12 07:57:00,
2013-06-12 04:02:00,78.5,74.3,29.96,West,269,2.0,2.0,87,0.00,,---,0.00,VWS V14.01,2013-06-12 08:02:00,
2013-06-12 04:07:00,78.5,74.3,29.96,West,273,0.0,3.0,87,0.00,,---,0.00,VWS V14.01,2013-06-12 08:07:00,
2013-06-12 04:12:00,78.4,74.2,29.96,SW,232,1.0,2.0,87,0.00,,---,0.00,VWS V14.01,2013-06-12 08:12:00,
2013-06-12 04:17:00,78.5,74.0,29.95,West,274,1.0,2.0,86,0.00,,---,0.00,VWS V14.01,2013-06-12 08:17:00,
2013-06-12 04:22:00,78.5,74.3,29.95,WSW,252,0.0,3.0,87,0.00,,---,0.00,VWS V14.01,2013-06-12 08:22:00,
2013-06-12 04:27:00,78.5,74.0,29.95,WSW,240,1.0,3.0,86,0.00,,---,0.00,VWS V14.01,2013-06-12 08:27:00,
2013-06-12 04:32:00,78.4,74.2,29.95,SW,214,0.0,2.0,87,0.00,,---,0.00,VWS V14.01,2013-06-12 08:32:00,
2013-06-12 04:37:00,78.5,74.3,29.95,West,266,1.0,3.0,87,0.00,,---,0.00,VWS V14.01,2013-06-12 08:37:00,
2013-06-12 04:42:00,78.5,74.3,29.95,WSW,246,2.0,3.0,87,0.00,,---,0.00,VWS V14.01,2013-06-12 08:42:00,
2013-06-12 04:47:00,78.4,74.2,29.96,WSW,249,2.0,3.0,87,0.00,,---,0.00,VWS V14.01,2013-06-12 08:47:00,
2013-06-12 04:52:00,78.4,74.2,29.95,West,274,2.0,3.0,87,0.00,,---,0.00,VWS V14.01,2013-06-12 08:52:00,
2013-06-12 04:57:00,78.3,73.8,29.95,West,262,2.0,5.0,86,0.00,,---,0.00,VWS V14.01,2013-06-12 08:57:00,
2013-06-12 05:02:00,78.4,73.9,29.95,West,262,4.0,6.0,86,0.00,,---,0.00,VWS V14.01,2013-06-12 09:02:00,
2013-06-12 05:07:00,78.4,73.9,29.95,West,270,3.0,4.0,86,0.00,,---,0.00,VWS V14.01,2013-06-12 09:07:00,
2013-06-12 05:12:00,78.3,73.8,29.95,WNW,285,3.0,6.0,86,0.00,,---,0.00,VWS V14.01,2013-06-12 09:12:00,
2013-06-12 05:17:00,78.2,73.7,29.95,WSW,243,6.0,8.0,86,0.00,,---,0.00,VWS V14.01,2013-06-12 09:17:00,
2013-06-12 05:22:00,78.3,73.8,29.95,West,269,5.0,8.0,86,0.00,,---,0.00,VWS V14.01,2013-06-12 09:22:00,
2013-06-12 05:27:00,78.2,73.7,29.95,WNW,295,4.0,5.0,86,0.00,,---,0.00,VWS V14.01,2013-06-12 09:27:00,
2013-06-12 05:32:00,78.2,73.7,29.95,West,271,3.0,5.0,86,0.00,,---,0.00,VWS V14.01,2013-06-12 09:32:00,
2013-06-12 05:37:00,78.1,73.6,29.96,West,269,2.0,5.0,86,0.00,,---,0.00,VWS V14.01,2013-06-12 09:37:00,
2013-06-12 05:42:00,78.1,73.6,29.96,West,264,6.0,9.0,86,0.00,,---,0.00,VWS V14.01,2013-06-12 09:42:00,
2013-06-12 05:47:00,78.2,73.7,29.96,West,274,3.0,4.0,86,0.00,,---,0.00,VWS V14.01,2013-06-12 09:47:00,
2013-06-12 05:52:00,78.2,73.3,29.97,WSW,256,1.0,3.0,85,0.00,,---,0.00,VWS V14.01,2013-06-12 09:52:00,
2013-06-12 05:57:00,78.1,73.2,29.97,West,262,2.0,4.0,85,0.00,,---,0.00,VWS V14.01,2013-06-12 09:57:00,
2013-06-12 06:02:00,77.9,73.0,29.97,West,259,3.0,5.0,85,0.00,,---,0.00,VWS V14.01,2013-06-12 10:02:00,
2013-06-12 06:07:00,77.8,73.3,29.97,West,264,1.0,5.0,86,0.00,,---,0.00,VWS V14.01,2013-06-12 10:07:00,
2013-06-12 06:12:00,77.7,73.2,29.97,WSW,242,0.0,2.0,86,0.00,,---,0.00,VWS V14.01,2013-06-12 10:12:00,
2013-06-12 06:17:00,77.7,73.2,29.97,West,261,3.0,3.0,86,0.00,,---,0.00,VWS V14.01,2013-06-12 10:17:00,
2013-06-12 06:22:00,77.7,73.2,29.98,West,269,2.0,3.0,86,0.00,,---,0.00,VWS V14.01,2013-06-12 10:22:00,
2013-06-12 06:27:00,77.6,73.1,29.98,West,267,0.0,3.0,86,0.00,,---,0.00,VWS V14.01,2013-06-12 10:27:00,
2013-06-12 06:32:00,77.5,73.0,29.98,WSW,242,3.0,4.0,86,0.00,,---,0.00,VWS V14.01,2013-06-12 10:32:00,
2013-06-12 06:37:00,77.5,73.3,29.98,WNW,282,2.0,3.0,87,0.00,,---,0.00,VWS V14.01,2013-06-12 10:37:00,
2013-06-12 06:42:00,77.6,73.4,29.98,WSW,249,3.0,5.0,87,0.00,,---,0.00,VWS V14.01,2013-06-12 10:42:00,
2013-06-12 06:47:00,77.7,73.2,29.98,WSW,253,1.0,5.0,86,0.00,,---,0.00,VWS V14.01,2013-06-12 10:47:00,
2013-06-12 06:52:00,77.9,73.4,29.98,WNW,284,4.0,6.0,86,0.00,,---,0.00,VWS V14.01,2013-06-12 10:52:00,
2013-06-12 06:57:00,78.1,73.6,29.98,West,270,4.0,6.0,86,0.00,,---,0.00,VWS V14.01,2013-06-12 10:57:00,
2013-06-12 07:02:00,78.3,73.4,29.99,West,275,2.0,2.0,85,0.00,,---,0.00,VWS V14.01,2013-06-12 11:02:00,
2013-06-12 07:07:00,78.6,73.7,29.98,West,266,3.0,4.0,85,0.00,,---,0.00,VWS V14.01,2013-06-12 11:07:00,
2013-06-12 07:12:00,78.8,73.9,29.99,WSW,238,4.0,4.0,85,0.00,,---,0.00,VWS V14.01,2013-06-12 11:12:00,
2013-06-12 07:17:00,78.9,73.7,29.98,West,268,7.0,8.0,84,0.00,,---,0.00,VWS V14.01,2013-06-12 11:17:00,
2013-06-12 07:22:00,79.0,73.8,29.98,WSW,248,3.0,8.0,84,0.00,,---,0.00,VWS V14.01,2013-06-12 11:22:00,
2013-06-12 07:27:00,79.1,73.8,29.98,West,262,2.0,7.0,84,0.00,,---,0.00,VWS V14.01,2013-06-12 11:27:00,
2013-06-12 07:32:00,79.3,74.1,29.98,West,277,2.0,8.0,84,0.00,,---,0.00,VWS V14.01,2013-06-12 11:32:00,
2013-06-12 07:37:00,79.5,74.2,29.99,West,281,4.0,6.0,84,0.00,,---,0.00,VWS V14.01,2013-06-12 11:37:00,
2013-06-12 07:42:00,79.7,74.1,29.99,West,281,6.0,7.0,83,0.00,,---,0.00,VWS V14.01,2013-06-12 11:42:00,
2013-06-12 07:47:00,79.9,74.3,29.99,WNW,289,3.0,8.0,83,0.00,,---,0.00,VWS V14.01,2013-06-12 11:47:00,
2013-06-12 07:52:00,80.1,74.8,29.99,WNW,283,5.0,8.0,84,0.00,,---,0.00,VWS V14.01,2013-06-12 11:52:00,
2013-06-12 07:57:00,80.4,74.8,29.99,WNW,291,4.0,5.0,83,0.00,,---,0.00,VWS V14.01,2013-06-12 11:57:00,
2013-06-12 08:02:00,80.6,75.0,29.99,West,269,5.0,7.0,83,0.00,,---,0.00,VWS V14.01,2013-06-12 12:02:00,
2013-06-12 08:07:00,80.6,74.6,29.99,West,267,2.0,6.0,82,0.00,,---,0.00,VWS V14.01,2013-06-12 12:07:00,
2013-06-12 08:12:00,80.9,74.9,29.99,WNW,296,6.0,6.0,82,0.00,,---,0.00,VWS V14.01,2013-06-12 12:12:00,
2013-06-12 08:17:00,81.1,75.4,29.99,WNW,295,3.0,6.0,83,0.00,,---,0.00,VWS V14.01,2013-06-12 12:17:00,
2013-06-12 08:22:00,81.5,75.1,30.00,NW,318,6.0,9.0,81,0.00,,---,0.00,VWS V14.01,2013-06-12 12:22:00,
2013-06-12 08:27:00,81.6,75.2,30.00,WNW,283,3.0,7.0,81,0.00,,---,0.00,VWS V14.01,2013-06-12 12:27:00,
2013-06-12 08:32:00,81.8,75.0,29.99,NW,314,2.0,7.0,80,0.00,,---,0.00,VWS V14.01,2013-06-12 12:32:00,
2013-06-12 08:36:00,82.2,75.8,29.99,West,264,1.0,5.0,81,0.00,,---,0.00,VWS V14.01,2013-06-12 12:36:00,
2013-06-12 08:41:00,82.5,75.7,29.99,WNW,293,3.0,4.0,80,0.00,,---,0.00,VWS V14.01,2013-06-12 12:41:00,
2013-06-12 08:47:00,82.9,76.1,30.00,NW,304,2.0,5.0,80,0.00,,---,0.00,VWS V14.01,2013-06-12 12:47:00,
2013-06-12 08:51:00,82.9,75.3,30.00,West,273,5.0,6.0,78,0.00,,---,0.00,VWS V14.01,2013-06-12 12:51:00,
2013-06-12 08:56:00,83.1,75.9,30.00,WNW,283,4.0,8.0,79,0.00,,---,0.00,VWS V14.01,2013-06-12 12:56:00,
2013-06-12 09:01:00,83.4,76.2,30.00,West,280,3.0,6.0,79,0.00,,---,0.00,VWS V14.01,2013-06-12 13:01:00,
2013-06-12 09:06:00,83.8,76.6,30.00,West,274,4.0,6.0,79,0.00,,---,0.00,VWS V14.01,2013-06-12 13:06:00,
2013-06-12 09:11:00,84.0,76.4,30.00,West,259,6.0,6.0,78,0.00,,---,0.00,VWS V14.01,2013-06-12 13:11:00,
2013-06-12 09:16:00,84.1,76.5,30.00,NW,313,4.0,6.0,78,0.00,,---,0.00,VWS V14.01,2013-06-12 13:16:00,
2013-06-12 09:21:00,84.4,76.4,30.00,NW,316,4.0,8.0,77,0.00,,---,0.00,VWS V14.01,2013-06-12 13:21:00,
2013-06-12 09:26:00,84.2,76.2,30.00,WNW,293,5.0,8.0,77,0.00,,---,0.00,VWS V14.01,2013-06-12 13:26:00,
2013-06-12 09:31:00,84.3,76.7,29.99,West,278,4.0,9.0,78,0.00,,---,0.00,VWS V14.01,2013-06-12 13:31:00,
2013-06-12 09:36:00,84.6,76.2,29.99,WNW,289,6.0,7.0,76,0.00,,---,0.00,VWS V14.01,2013-06-12 13:36:00,
2013-06-12 09:41:00,84.8,76.4,29.99,West,280,8.0,8.0,76,0.00,,---,0.00,VWS V14.01,2013-06-12 13:41:00,
2013-06-12 09:46:00,85.2,76.8,29.99,NW,311,3.0,3.0,76,0.00,,---,0.00,VWS V14.01,2013-06-12 13:46:00,
2013-06-12 09:51:00,85.8,77.0,29.99,WNW,290,5.0,6.0,75,0.00,,---,0.00,VWS V14.01,2013-06-12 13:51:00,
2013-06-12 09:56:00,86.0,77.2,29.99,West,274,3.0,6.0,75,0.00,,---,0.00,VWS V14.01,2013-06-12 13:56:00,
2013-06-12 10:01:00,86.2,76.5,29.99,NNW,338,3.0,7.0,73,0.00,,---,0.00,VWS V14.01,2013-06-12 14:01:00,
2013-06-12 10:06:00,86.5,76.4,29.99,WSW,248,5.0,7.0,72,0.00,,---,0.00,VWS V14.01,2013-06-12 14:06:00,
2013-06-12 10:11:00,86.8,76.3,29.99,NW,304,4.0,9.0,71,0.00,,---,0.00,VWS V14.01,2013-06-12 14:11:00,
2013-06-12 10:16:00,86.9,76.8,29.99,WNW,292,7.0,7.0,72,0.00,,---,0.00,VWS V14.01,2013-06-12 14:16:00,
2013-06-12 10:21:00,87.1,76.1,29.99,West,267,3.0,4.0,70,0.00,,---,0.00,VWS V14.01,2013-06-12 14:21:00,
2013-06-12 10:26:00,87.3,76.8,29.99,WNW,289,3.0,3.0,71,0.00,,---,0.00,VWS V14.01,2013-06-12 14:26:00,
2013-06-12 10:31:00,87.8,75.9,29.99,West,267,3.0,6.0,68,0.00,,---,0.00,VWS V14.01,2013-06-12 14:31:00,
2013-06-12 10:36:00,87.7,75.8,29.99,West,281,5.0,6.0,68,0.00,,---,0.00,VWS V14.01,2013-06-12 14:36:00,
2013-06-12 10:41:00,88.0,76.1,29.99,WNW,289,4.0,5.0,68,0.00,,---,0.00,VWS V14.01,2013-06-12 14:41:00,
2013-06-12 10:46:00,88.3,75.5,29.99,WNW,285,4.0,8.0,66,0.00,,---,0.00,VWS V14.01,2013-06-12 14:46:00,
2013-06-12 10:51:00,88.2,75.0,29.99,WNW,287,2.0,6.0,65,0.00,,---,0.00,VWS V14.01,2013-06-12 14:51:00,
2013-06-12 10:56:00,88.4,75.1,29.99,NW,309,4.0,6.0,65,0.00,,---,0.00,VWS V14.01,2013-06-12 14:56:00,
2013-06-12 11:01:00,88.5,75.2,30.00,WNW,295,6.0,6.0,65,0.00,,---,0.00,VWS V14.01,2013-06-12 15:01:00,
2013-06-12 11:06:00,88.9,74.2,30.00,WNW,296,7.0,10.0,62,0.00,,---,0.00,VWS V14.01,2013-06-12 15:06:00,
2013-06-12 11:11:00,88.8,75.1,30.00,West,281,5.0,8.0,64,0.00,,---,0.00,VWS V14.01,2013-06-12 15:11:00,
2013-06-12 11:16:00,89.2,75.4,30.00,West,275,4.0,7.0,64,0.00,,---,0.00,VWS V14.01,2013-06-12 15:16:00,
2013-06-12 11:21:00,89.3,74.6,30.00,West,267,4.0,9.0,62,0.00,,---,0.00,VWS V14.01,2013-06-12 15:21:00,
2013-06-12 11:26:00,89.3,75.5,30.00,WSW,246,5.0,8.0,64,0.00,,---,0.00,VWS V14.01,2013-06-12 15:26:00,
2013-06-12 11:31:00,89.7,75.9,30.00,NW,306,6.0,11.0,64,0.00,,---,0.00,VWS V14.01,2013-06-12 15:31:00,
2013-06-12 11:36:00,89.5,73.8,30.00,NW,304,6.0,9.0,60,0.00,,---,0.00,VWS V14.01,2013-06-12 15:36:00,
2013-06-12 11:41:00,89.5,73.8,30.00,WNW,296,6.0,8.0,60,0.00,,---,0.00,VWS V14.01,2013-06-12 15:41:00,
2013-06-12 11:46:00,89.7,74.5,30.00,West,269,7.0,9.0,61,0.00,,---,0.00,VWS V14.01,2013-06-12 15:46:00,
2013-06-12 11:51:00,89.8,74.6,30.00,NW,305,5.0,10.0,61,0.00,,---,0.00,VWS V14.01,2013-06-12 15:51:00,
2013-06-12 11:56:00,89.8,74.1,30.00,WNW,283,4.0,6.0,60,0.00,,---,0.00,VWS V14.01,2013-06-12 15:56:00,
2013-06-12 12:01:00,90.0,75.2,30.00,WSW,256,10.0,10.0,62,0.00,,---,0.00,VWS V14.01,2013-06-12 16:01:00,
2013-06-12 12:06:00,90.0,74.8,30.00,West,275,10.0,11.0,61,0.00,,---,0.00,VWS V14.01,2013-06-12 16:06:00,
2013-06-12 12:11:00,89.9,76.1,30.00,NW,319,3.0,6.0,64,0.00,,---,0.00,VWS V14.01,2013-06-12 16:11:00,
2013-06-12 12:16:00,90.0,74.8,30.00,WNW,301,5.0,9.0,61,0.00,,---,0.00,VWS V14.01,2013-06-12 16:16:00,
2013-06-12 12:21:00,90.2,75.9,30.00,NW,318,5.0,6.0,63,0.00,,---,0.00,VWS V14.01,2013-06-12 16:21:00,
2013-06-12 12:26:00,90.4,75.1,30.00,WNW,285,8.0,8.0,61,0.00,,---,0.00,VWS V14.01,2013-06-12 16:26:00,
2013-06-12 12:31:00,90.2,74.4,29.99,WSW,256,6.0,8.0,60,0.00,,---,0.00,VWS V14.01,2013-06-12 16:31:00,
2013-06-12 12:36:00,90.3,75.0,29.99,West,269,6.0,7.0,61,0.00,,---,0.00,VWS V14.01,2013-06-12 16:36:00,
2013-06-12 12:41:00,90.3,73.5,29.99,WNW,295,5.0,5.0,58,0.00,,---,0.00,VWS V14.01,2013-06-12 16:41:00,
2013-06-12 12:46:00,90.5,75.2,29.99,West,278,3.0,6.0,61,0.00,,---,0.00,VWS V14.01,2013-06-12 16:46:00,
2013-06-12 12:51:00,90.8,76.5,29.99,WNW,288,3.0,7.0,63,0.00,,---,0.00,VWS V14.01,2013-06-12 16:51:00,
2013-06-12 12:56:00,90.9,75.6,29.99,WNW,287,6.0,9.0,61,0.00,,---,0.00,VWS V14.01,2013-06-12 16:56:00,
2013-06-12 13:01:00,90.9,75.1,29.99,WNW,290,8.0,8.0,60,0.00,,---,0.00,VWS V14.01,2013-06-12 17:01:00,
2013-06-12 13:06:00,91.1,76.3,29.99,West,266,2.0,5.0,62,0.00,,---,0.00,VWS V14.01,2013-06-12 17:06:00,
2013-06-12 13:11:00,91.0,74.7,29.99,West,280,6.0,6.0,59,0.00,,---,0.00,VWS V14.01,2013-06-12 17:11:00,
2013-06-12 13:16:00,90.9,76.1,29.99,WSW,246,7.0,8.0,62,0.00,,---,0.00,VWS V14.01,2013-06-12 17:16:00,
2013-06-12 13:21:00,90.9,75.1,29.99,WNW,290,5.0,7.0,60,0.00,,---,0.00,VWS V14.01,2013-06-12 17:21:00,
2013-06-12 13:26:00,90.9,75.6,29.99,West,273,9.0,9.0,61,0.00,,---,0.00,VWS V14.01,2013-06-12 17:26:00,
2013-06-12 13:31:00,91.1,76.8,29.99,WSW,248,5.0,11.0,63,0.00,,---,0.00,VWS V14.01,2013-06-12 17:31:00,
2013-06-12 13:36:00,91.0,75.7,29.99,WNW,293,7.0,8.0,61,0.00,,---,0.00,VWS V14.01,2013-06-12 17:36:00,
2013-06-12 13:41:00,91.0,74.7,29.98,WSW,245,3.0,6.0,59,0.00,,---,0.00,VWS V14.01,2013-06-12 17:41:00,
2013-06-12 13:46:00,91.4,74.6,29.98,WSW,245,4.0,6.0,58,0.00,,---,0.00,VWS V14.01,2013-06-12 17:46:00,
2013-06-12 13:51:00,91.6,75.8,29.98,WNW,294,9.0,10.0,60,0.00,,---,0.00,VWS V14.01,2013-06-12 17:51:00,
2013-06-12 13:56:00,91.6,75.8,29.98,WSW,248,2.0,9.0,60,0.00,,---,0.00,VWS V14.01,2013-06-12 17:56:00,
2013-06-12 14:01:00,92.1,77.2,29.98,West,277,5.0,9.0,62,0.00,,---,0.00,VWS V14.01,2013-06-12 18:01:00,
2013-06-12 14:06:00,92.2,76.3,29.98,WSW,253,6.0,6.0,60,0.00,,---,0.00,VWS V14.01,2013-06-12 18:06:00,
2013-06-12 14:11:00,92.1,75.2,29.98,West,276,6.0,6.0,58,0.00,,---,0.00,VWS V14.01,2013-06-12 18:11:00,
2013-06-12 14:16:00,92.2,75.3,29.98,West,266,8.0,8.0,58,0.00,,---,0.00,VWS V14.01,2013-06-12 18:16:00,
2013-06-12 14:21:00,92.5,77.1,29.97,West,264,4.0,8.0,61,0.00,,---,0.00,VWS V14.01,2013-06-12 18:21:00,
2013-06-12 14:26:00,92.3,73.8,29.97,WNW,294,4.0,7.0,55,0.00,,---,0.00,VWS V14.01,2013-06-12 18:26:00,
2013-06-12 14:31:00,92.9,75.9,29.97,WNW,288,4.0,5.0,58,0.00,,---,0.00,VWS V14.01,2013-06-12 18:31:00,
2013-06-12 14:36:00,92.5,74.0,29.97,WSW,242,6.0,6.0,55,0.00,,---,0.00,VWS V14.01,2013-06-12 18:36:00,
2013-06-12 14:41:00,92.5,74.0,29.97,WSW,257,0.0,3.0,55,0.00,,---,0.00,VWS V14.01,2013-06-12 18:41:00,
2013-06-12 14:46:00,92.7,73.6,29.97,NNW,332,4.0,10.0,54,0.00,,---,0.00,VWS V14.01,2013-06-12 18:46:00,
2013-06-12 14:51:00,92.9,76.5,29.97,West,264,4.0,6.0,59,0.00,,---,0.00,VWS V14.01,2013-06-12 18:51:00,
2013-06-12 14:56:00,92.8,74.8,29.97,West,269,8.0,9.0,56,0.00,,---,0.00,VWS V14.01,2013-06-12 18:56:00,
2013-06-12 15:01:00,92.8,75.3,29.97,WNW,294,3.0,8.0,57,0.00,,---,0.00,VWS V14.01,2013-06-12 19:01:00,
2013-06-12 15:06:00,92.4,75.5,29.97,NW,309,6.0,7.0,58,0.00,,---,0.00,VWS V14.01,2013-06-12 19:06:00,
2013-06-12 15:11:00,92.8,74.3,29.96,WNW,290,7.0,10.0,55,0.00,,---,0.00,VWS V14.01,2013-06-12 19:11:00,
2013-06-12 15:16:00,93.1,74.0,29.96,WNW,288,6.0,8.0,54,0.00,,---,0.00,VWS V14.01,2013-06-12 19:16:00,
2013-06-12 15:21:00,93.2,75.7,29.96,WNW,290,6.0,10.0,57,0.00,,---,0.00,VWS V14.01,2013-06-12 19:21:00,
2013-06-12 15:26:00,93.4,75.9,29.96,WNW,284,5.0,7.0,57,0.00,,---,0.00,VWS V14.01,2013-06-12 19:26:00,
2013-06-12 15:31:00,93.5,75.5,29.95,WSW,250,4.0,7.0,56,0.00,,---,0.00,VWS V14.01,2013-06-12 19:31:00,
2013-06-12 15:36:00,93.5,74.9,29.95,WNW,283,5.0,6.0,55,0.00,,---,0.00,VWS V14.01,2013-06-12 19:36:00,
2013-06-12 15:41:00,93.4,73.7,29.95,WNW,288,6.0,6.0,53,0.00,,---,0.00,VWS V14.01,2013-06-12 19:41:00,
2013-06-12 15:46:00,93.5,73.8,29.95,WNW,290,4.0,6.0,53,0.00,,---,0.00,VWS V14.01,2013-06-12 19:46:00,
2013-06-12 15:51:00,93.6,74.5,29.95,WNW,293,3.0,8.0,54,0.00,,---,0.00,VWS V14.01,2013-06-12 19:51:00,
2013-06-12 15:56:00,94.1,76.6,29.95,West,280,4.0,6.0,57,0.00,,---,0.00,VWS V14.01,2013-06-12 19:56:00,
2013-06-12 16:01:00,93.9,74.7,29.94,West,262,4.0,6.0,54,0.00,,---,0.00,VWS V14.01,2013-06-12 20:01:00,
2013-06-12 16:06:00,93.9,74.7,29.94,WNW,285,8.0,8.0,54,0.00,,---,0.00,VWS V14.01,2013-06-12 20:06:00,
2013-06-12 16:11:00,94.2,73.3,29.94,SW,222,5.0,8.0,51,0.00,,---,0.00,VWS V14.01,2013-06-12 20:11:00,
2013-06-12 16:16:00,92.9,78.9,29.94,WSW,240,5.0,8.0,64,0.00,,---,0.00,VWS V14.01,2013-06-12 20:16:00,
2013-06-12 16:21:00,92.4,79.8,29.94,SW,235,0.0,8.0,67,0.00,,---,0.00,VWS V14.01,2013-06-12 20:21:00,
2013-06-12 16:26:00,92.1,78.2,29.94,SSW,198,2.0,6.0,64,0.00,,---,0.00,VWS V14.01,2013-06-12 20:26:00,
2013-06-12 16:31:00,92.4,80.3,29.94,SSW,193,2.0,5.0,68,0.00,,---,0.00,VWS V14.01,2013-06-12 20:31:00,
2013-06-12 16:36:00,92.4,79.8,29.94,SSW,210,2.0,10.0,67,0.00,,---,0.00,VWS V14.01,2013-06-12 20:36:00,
2013-06-12 16:41:00,92.0,79.0,29.94,SSW,193,6.0,9.0,66,0.00,,---,0.00,VWS V14.01,2013-06-12 20:41:00,
2013-06-12 16:46:00,91.8,80.2,29.94,SSW,193,2.0,5.0,69,0.00,,---,0.00,VWS V14.01,2013-06-12 20:46:00,
2013-06-12 16:51:00,91.4,80.2,29.93,SSW,201,7.0,8.0,70,0.00,,---,0.00,VWS V14.01,2013-06-12 20:51:00,
2013-06-12 16:56:00,91.5,80.8,29.93,WSW,243,1.0,2.0,71,0.00,,---,0.00,VWS V14.01,2013-06-12 20:56:00,
2013-06-12 17:01:00,91.7,78.7,29.93,WSW,238,1.0,6.0,66,0.00,,---,0.00,VWS V14.01,2013-06-12 21:01:00,
2013-06-12 17:06:00,91.7,79.6,29.93,SSE,148,8.0,8.0,68,0.00,,---,0.00,VWS V14.01,2013-06-12 21:06:00,
2013-06-12 17:11:00,91.8,79.7,29.93,WSW,257,5.0,8.0,68,0.00,,---,0.00,VWS V14.01,2013-06-12 21:11:00,
2013-06-12 17:16:00,91.7,79.2,29.93,SSW,194,4.0,7.0,67,0.00,,---,0.00,VWS V14.01,2013-06-12 21:16:00,
2013-06-12 17:21:00,91.9,78.9,29.92,SSW,195,2.0,5.0,66,0.00,,---,0.00,VWS V14.01,2013-06-12 21:21:00,
2013-06-12 17:26:00,92.1,80.0,29.93,SE,124,1.0,3.0,68,0.00,,---,0.00,VWS V14.01,2013-06-12 21:26:00,
2013-06-12 17:31:00,92.0,80.4,29.92,West,262,5.0,5.0,69,0.00,,---,0.00,VWS V14.01,2013-06-12 21:31:00,
2013-06-12 17:36:00,91.9,79.8,29.92,South,186,5.0,7.0,68,0.00,,---,0.00,VWS V14.01,2013-06-12 21:36:00,
2013-06-12 17:41:00,92.0,79.9,29.92,West,270,3.0,4.0,68,0.00,,---,0.00,VWS V14.01,2013-06-12 21:41:00,
2013-06-12 17:46:00,92.2,78.7,29.92,SSW,202,2.0,6.0,65,0.00,,---,0.00,VWS V14.01,2013-06-12 21:46:00,
2013-06-12 17:51:00,93.0,72.8,29.92,West,271,5.0,6.0,52,0.00,,---,0.00,VWS V14.01,2013-06-12 21:51:00,
2013-06-12 17:56:00,93.6,72.8,29.92,West,274,5.0,8.0,51,0.00,,---,0.00,VWS V14.01,2013-06-12 21:56:00,
2013-06-12 18:01:00,94.1,73.2,29.92,WNW,294,2.0,4.0,51,0.00,,---,0.00,VWS V14.01,2013-06-12 22:01:00,
2013-06-12 18:06:00,94.4,72.9,29.92,WNW,294,4.0,6.0,50,0.00,,---,0.00,VWS V14.01,2013-06-12 22:06:00,
2013-06-12 18:11:00,94.5,75.3,29.92,WNW,301,3.0,4.0,54,0.00,,---,0.00,VWS V14.01,2013-06-12 22:11:00,
2013-06-12 18:16:00,94.3,74.0,29.92,WNW,302,7.0,10.0,52,0.00,,---,0.00,VWS V14.01,2013-06-12 22:16:00,
2013-06-12 18:21:00,94.3,74.6,29.92,WNW,292,4.0,5.0,53,0.00,,---,0.00,VWS V14.01,2013-06-12 22:21:00,
2013-06-12 18:26:00,94.2,74.5,29.92,NNW,330,4.0,4.0,53,0.00,,---,0.00,VWS V14.01,2013-06-12 22:26:00,
2013-06-12 18:31:00,94.2,75.0,29.92,WNW,294,8.0,8.0,54,0.00,,---,0.00,VWS V14.01,2013-06-12 22:31:00,
2013-06-12 18:36:00,94.1,75.5,29.92,WNW,291,7.0,8.0,55,0.00,,---,0.00,VWS V14.01,2013-06-12 22:36:00,
2013-06-12 18:41:00,93.8,74.1,29.92,NW,308,7.0,7.0,53,0.00,,---,0.00,VWS V14.01,2013-06-12 22:41:00,
2013-06-12 18:46:00,93.8,74.7,29.92,WNW,295,2.0,3.0,54,0.00,,---,0.00,VWS V14.01,2013-06-12 22:46:00,
2013-06-12 18:51:00,93.8,74.7,29.92,WNW,291,4.0,5.0,54,0.00,,---,0.00,VWS V14.01,2013-06-12 22:51:00,
2013-06-12 18:56:00,93.7,75.1,29.92,West,271,7.0,7.0,55,0.00,,---,0.00,VWS V14.01,2013-06-12 22:56:00,
2013-06-12 19:01:00,93.5,74.9,29.92,WNW,292,3.0,5.0,55,0.00,,---,0.00,VWS V14.01,2013-06-12 23:01:00,
2013-06-12 19:06:00,93.5,75.5,29.93,NW,323,3.0,5.0,56,0.00,,---,0.00,VWS V14.01,2013-06-12 23:06:00,
2013-06-12 19:11:00,93.4,75.9,29.92,WNW,295,1.0,3.0,57,0.00,,---,0.00,VWS V14.01,2013-06-12 23:11:00,
2013-06-12 19:16:00,93.4,75.9,29.92,WNW,293,5.0,5.0,57,0.00,,---,0.00,VWS V14.01,2013-06-12 23:16:00,
2013-06-12 19:21:00,93.3,74.7,29.93,SSE,167,4.0,4.0,55,0.00,,---,0.00,VWS V14.01,2013-06-12 23:21:00,
2013-06-12 19:26:00,91.5,79.9,29.92,SSE,149,4.0,7.0,69,0.00,,---,0.00,VWS V14.01,2013-06-12 23:26:00,
2013-06-12 19:31:00,90.0,79.8,29.92,SSE,165,8.0,8.0,72,0.00,,---,0.00,VWS V14.01,2013-06-12 23:31:00,
2013-06-12 19:36:00,89.1,80.1,29.93,SSE,156,6.0,8.0,75,0.00,,---,0.00,VWS V14.01,2013-06-12 23:36:00,
2013-06-12 19:41:00,88.6,80.5,29.92,SSW,207,0.0,3.0,77,0.00,,---,0.00,VWS V14.01,2013-06-12 23:41:00,
2013-06-12 19:46:00,88.3,80.6,29.92,SE,146,4.0,4.0,78,0.00,,---,0.00,VWS V14.01,2013-06-12 23:46:00,
2013-06-12 19:51:00,87.9,80.6,29.92,ESE,104,4.0,4.0,79,0.00,,---,0.00,VWS V14.01,2013-06-12 23:51:00,
2013-06-12 19:56:00,87.5,80.6,29.92,South,185,2.0,4.0,80,0.00,,---,0.00,VWS V14.01,2013-06-12 23:56:00,
2013-06-12 20:01:00,87.1,80.6,29.92,SSE,150,0.0,1.0,81,0.00,,---,0.00,VWS V14.01,2013-06-13 00:01:00,
2013-06-12 20:06:00,86.9,80.4,29.92,SSE,156,4.0,4.0,81,0.00,,---,0.00,VWS V14.01,2013-06-13 00:06:00,
2013-06-12 20:11:00,86.5,80.3,29.92,SSW,193,1.0,2.0,82,0.00,,---,0.00,VWS V14.01,2013-06-13 00:11:00,
2013-06-12 20:16:00,86.2,80.1,29.92,ESE,118,0.0,2.0,82,0.00,,---,0.00,VWS V14.01,2013-06-13 00:16:00,
2013-06-12 20:21:00,85.8,80.4,29.92,SSE,149,0.0,2.0,84,0.00,,---,0.00,VWS V14.01,2013-06-13 00:21:00,
2013-06-12 20:26:00,85.3,80.3,29.92,SSE,155,0.0,2.0,85,0.00,,---,0.00,VWS V14.01,2013-06-13 00:26:00,
2013-06-12 20:31:00,84.9,80.2,29.93,South,169,1.0,4.0,86,0.00,,---,0.00,VWS V14.01,2013-06-13 00:31:00,
2013-06-12 20:36:00,84.6,79.9,29.93,SW,226,4.0,4.0,86,0.00,,---,0.00,VWS V14.01,2013-06-13 00:36:00,
2013-06-12 20:41:00,84.3,80.0,29.93,SSW,200,1.0,4.0,87,0.00,,---,0.00,VWS V14.01,2013-06-13 00:41:00,
2013-06-12 20:48:00,84.1,79.8,29.93,WSW,240,0.0,2.0,87,0.00,,---,0.00,VWS V14.01,2013-06-13 00:48:00,
2013-06-12 20:53:00,83.9,80.0,29.94,SSW,195,2.0,2.0,88,0.00,,---,0.00,VWS V14.01,2013-06-13 00:53:00,
2013-06-12 20:57:00,83.8,79.9,29.94,SE,139,1.0,1.0,88,0.00,,---,0.00,VWS V14.01,2013-06-13 00:57:00,
2013-06-12 21:02:00,83.7,80.1,29.94,SSE,160,0.0,3.0,89,0.00,,---,0.00,VWS V14.01,2013-06-13 01:02:00,
2013-06-12 21:07:00,83.6,80.0,29.94,SSE,162,0.0,2.0,89,0.00,,---,0.00,VWS V14.01,2013-06-13 01:07:00,
2013-06-12 21:12:00,83.5,79.9,29.94,South,173,0.0,0.0,89,0.00,,---,0.00,VWS V14.01,2013-06-13 01:12:00,
2013-06-12 21:17:00,83.4,79.8,29.94,SW,218,0.0,0.0,89,0.00,,---,0.00,VWS V14.01,2013-06-13 01:17:00,
2013-06-12 21:22:00,83.4,79.8,29.94,SSE,150,0.0,0.0,89,0.00,,---,0.00,VWS V14.01,2013-06-13 01:22:00,
2013-06-12 21:27:00,83.3,80.1,29.94,SSW,198,0.0,0.0,90,0.00,,---,0.00,VWS V14.01,2013-06-13 01:27:00,
2013-06-12 21:32:00,83.3,80.1,29.94,SSW,204,0.0,0.0,90,0.00,,---,0.00,VWS V14.01,2013-06-13 01:32:00,
2013-06-12 21:38:00,83.3,80.1,29.94,SSE,150,0.0,0.0,90,0.00,,---,0.00,VWS V14.01,2013-06-13 01:38:00,
2013-06-12 21:43:00,83.2,80.0,29.94,SSE,162,0.0,0.0,90,0.00,,---,0.00,VWS V14.01,2013-06-13 01:43:00,
2013-06-12 21:48:00,83.1,79.9,29.94,SSW,192,0.0,0.0,90,0.00,,---,0.00,VWS V14.01,2013-06-13 01:48:00,
2013-06-12 21:53:00,83.0,79.8,29.94,SSW,193,0.0,0.0,90,0.00,,---,0.00,VWS V14.01,2013-06-13 01:53:00,
2013-06-12 21:58:00,82.9,79.7,29.94,South,170,1.0,2.0,90,0.00,,---,0.00,VWS V14.01,2013-06-13 01:58:00,
2013-06-12 22:03:00,82.9,79.7,29.94,SSW,207,1.0,2.0,90,0.00,,---,0.00,VWS V14.01,2013-06-13 02:03:00,
2013-06-12 22:08:00,82.9,79.7,29.94,South,190,0.0,0.0,90,0.00,,---,0.00,VWS V14.01,2013-06-13 02:08:00,
2013-06-12 22:13:00,82.7,79.5,29.95,SSW,203,2.0,2.0,90,0.00,,---,0.00,VWS V14.01,2013-06-13 02:13:00,
2013-06-12 22:18:00,82.6,79.7,29.95,South,188,1.0,2.0,91,0.00,,---,0.00,VWS V14.01,2013-06-13 02:18:00,
2013-06-12 22:23:00,82.6,79.7,29.95,South,179,0.0,2.0,91,0.00,,---,0.00,VWS V14.01,2013-06-13 02:23:00,
2013-06-12 22:28:00,82.5,79.6,29.95,SSW,204,0.0,1.0,91,0.00,,---,0.00,VWS V14.01,2013-06-13 02:28:00,
2013-06-12 22:32:00,82.5,79.6,29.95,SSW,203,2.0,4.0,91,0.00,,---,0.00,VWS V14.01,2013-06-13 02:32:00,
2013-06-12 22:37:00,82.6,80.0,29.95,SSW,207,0.0,1.0,92,0.00,,---,0.00,VWS V14.01,2013-06-13 02:37:00,
2013-06-12 22:42:00,82.6,80.0,29.95,SSW,210,0.0,2.0,92,0.00,,---,0.00,VWS V14.01,2013-06-13 02:42:00,
2013-06-12 22:47:00,82.7,80.1,29.95,SW,236,5.0,5.0,92,0.00,,---,0.00,VWS V14.01,2013-06-13 02:47:00,
2013-06-12 22:52:00,82.7,80.1,29.95,SSW,208,2.0,3.0,92,0.00,,---,0.00,VWS V14.01,2013-06-13 02:52:00,
2013-06-12 22:57:00,82.7,80.1,29.95,SW,236,0.0,5.0,92,0.00,,---,0.00,VWS V14.01,2013-06-13 02:57:00,
2013-06-12 23:02:00,82.7,80.1,29.95,SSE,152,0.0,4.0,92,0.00,,---,0.00,VWS V14.01,2013-06-13 03:02:00,
2013-06-12 23:07:00,82.7,80.1,29.95,WSW,248,0.0,1.0,92,0.00,,---,0.00,VWS V14.01,2013-06-13 03:07:00,
2013-06-12 23:12:00,82.7,80.1,29.95,WSW,253,0.0,0.0,92,0.00,,---,0.00,VWS V14.01,2013-06-13 03:12:00,
2013-06-12 23:17:00,82.7,80.1,29.95,SE,141,0.0,4.0,92,0.00,,---,0.00,VWS V14.01,2013-06-13 03:17:00,
2013-06-12 23:22:00,82.7,80.1,29.95,South,181,2.0,2.0,92,0.00,,---,0.00,VWS V14.01,2013-06-13 03:22:00,
2013-06-12 23:27:00,82.7,80.1,29.95,SE,140,1.0,3.0,92,0.00,,---,0.00,VWS V14.01,2013-06-13 03:27:00,
2013-06-12 23:32:00,82.7,80.5,29.95,SW,218,0.0,1.0,93,0.00,,---,0.00,VWS V14.01,2013-06-13 03:32:00,
2013-06-12 23:37:00,82.6,80.4,29.95,South,186,0.0,2.0,93,0.00,,---,0.00,VWS V14.01,2013-06-13 03:37:00,
2013-06-12 23:42:00,82.5,80.3,29.94,South,169,1.0,2.0,93,0.00,,---,0.00,VWS V14.01,2013-06-13 03:42:00,
2013-06-12 23:47:00,82.5,80.3,29.94,SSW,210,0.0,1.0,93,0.00,,---,0.00,VWS V14.01,2013-06-13 03:47:00,
2013-06-12 23:52:00,82.4,80.2,29.94,SE,133,0.0,2.0,93,0.00,,---,0.00,VWS V14.01,2013-06-13 03:52:00,
2013-06-12 23:57:00,82.4,80.2,29.94,SE,146,1.0,3.0,93,0.00,,---,0.00,VWS V14.01,2013-06-13 03:57:00,